Terminal Aerodrome Forecast
Issued by NWS

Home | Current Version | Previous Version | Text Only | Print | Product List | Glossary On
Versions: 1 2 3 4 5 6 7 8 9 10 11 12 13 14
000
FTUS45 KVEF 061120
TAFBIH
TAF
KBIH 061120Z 0612/0712 36008KT P6SM SCT060 BKN120
     FM061900 17015G25KT P6SM VCTS BKN060CB BKN100
     FM070300 16008KT P6SM SCT070 BKN110
     FM071000 34008KT P6SM SCT070 BKN110=

USA.gov is the U.S. government's official web portal to all federal, state and local government web resources and services.